sensor_id;sensor_type;location;lat;lon;timestamp;pressure;altitude;pressure_sealevel;temperature;humidity
60355;BME280;46198;51.464;-0.066;2023-01-28T00:01:34;103103.41;;;3.23;100.00
60355;BME280;46198;51.464;-0.066;2023-01-28T00:04:02;103094.16;;;3.27;100.00
60355;BME280;46198;51.464;-0.066;2023-01-28T00:06:31;103100.53;;;3.26;100.00
60355;BME280;46198;51.464;-0.066;2023-01-28T00:08:59;103095.88;;;3.28;100.00
60355;BME280;46198;51.464;-0.066;2023-01-28T00:11:28;103098.44;;;3.29;100.00
60355;BME280;46198;51.464;-0.066;2023-01-28T00:13:56;103092.00;;;3.32;100.00
60355;BME280;46198;51.464;-0.066;2023-01-28T00:16:28;103101.66;;;3.35;100.00
60355;BME280;46198;51.464;-0.066;2023-01-28T00:18:57;103097.13;;;3.35;100.00
60355;BME280;46198;51.464;-0.066;2023-01-28T00:21:25;103097.38;;;3.32;100.00
60355;BME280;46198;51.464;-0.066;2023-01-28T00:23:54;103101.66;;;3.35;100.00
60355;BME280;46198;51.464;-0.066;2023-01-28T00:26:23;103093.22;;;3.39;100.00
60355;BME280;46198;51.464;-0.066;2023-01-28T00:28:53;103089.34;;;3.43;100.00
60355;BME280;46198;51.464;-0.066;2023-01-28T00:31:23;103088.50;;;3.43;100.00
60355;BME280;46198;51.464;-0.066;2023-01-28T00:33:54;103084.56;;;3.47;100.00
60355;BME280;46198;51.464;-0.066;2023-01-28T00:36:25;103083.97;;;3.43;100.00
60355;BME280;46198;51.464;-0.066;2023-01-28T00:38:54;103088.25;;;3.46;100.00
60355;BME280;46198;51.464;-0.066;2023-01-28T00:41:26;103087.16;;;3.48;100.00
60355;BME280;46198;51.464;-0.066;2023-01-28T00:43:57;103082.03;;;3.45;100.00
60355;BME280;46198;51.464;-0.066;2023-01-28T00:46:25;103082.75;;;3.47;100.00
60355;BME280;46198;51.464;-0.066;2023-01-28T00:48:55;103080.94;;;3.48;100.00
60355;BME280;46198;51.464;-0.066;2023-01-28T00:51:23;103089.09;;;3.46;100.00
60355;BME280;46198;51.464;-0.066;2023-01-28T00:53:51;103075.56;;;3.48;100.00
60355;BME280;46198;51.464;-0.066;2023-01-28T00:56:19;103075.56;;;3.48;100.00
60355;BME280;46198;51.464;-0.066;2023-01-28T00:58:48;103080.28;;;3.44;100.00
60355;BME280;46198;51.464;-0.066;2023-01-28T01:01:19;103067.84;;;3.43;100.00
60355;BME280;46198;51.464;-0.066;2023-01-28T01:03:48;103066.88;;;3.44;100.00
60355;BME280;46198;51.464;-0.066;2023-01-28T01:06:24;103072.97;;;3.46;100.00
60355;BME280;46198;51.464;-0.066;2023-01-28T01:08:52;103078.25;;;3.48;100.00
60355;BME280;46198;51.464;-0.066;2023-01-28T01:11:21;103081.78;;;3.48;100.00
60355;BME280;46198;51.464;-0.066;2023-01-28T01:13:50;103079.09;;;3.48;100.00
60355;BME280;46198;51.464;-0.066;2023-01-28T01:16:21;103083.50;;;3.49;100.00
60355;BME280;46198;51.464;-0.066;2023-01-28T01:18:50;103081.03;;;3.46;100.00
60355;BME280;46198;51.464;-0.066;2023-01-28T01:21:21;103083.50;;;3.49;100.00
60355;BME280;46198;51.464;-0.066;2023-01-28T01:23:51;103080.06;;;3.47;100.00
60355;BME280;46198;51.464;-0.066;2023-01-28T01:26:20;103079.22;;;3.47;100.00
60355;BME280;46198;51.464;-0.066;2023-01-28T01:28:50;103086.91;;;3.51;100.00
60355;BME280;46198;51.464;-0.066;2023-01-28T01:31:19;103080.06;;;3.47;100.00
60355;BME280;46198;51.464;-0.066;2023-01-28T01:33:49;103089.50;;;3.53;100.00
60355;BME280;46198;51.464;-0.066;2023-01-28T01:36:18;103087.78;;;3.52;100.00
60355;BME280;46198;51.464;-0.066;2023-01-28T01:38:53;103090.44;;;3.52;100.00
60355;BME280;46198;51.464;-0.066;2023-01-28T01:41:25;103076.28;;;3.50;100.00
60355;BME280;46198;51.464;-0.066;2023-01-28T01:43:55;103084.34;;;3.50;100.00
60355;BME280;46198;51.464;-0.066;2023-01-28T01:46:31;103088.09;;;3.47;100.00
60355;BME280;46198;51.464;-0.066;2023-01-28T01:49:05;103087.78;;;3.52;100.00
60355;BME280;46198;51.464;-0.066;2023-01-28T01:51:35;103081.53;;;3.51;100.00
60355;BME280;46198;51.464;-0.066;2023-01-28T01:54:05;103076.19;;;3.51;100.00
60355;BME280;46198;51.464;-0.066;2023-01-28T01:56:38;103086.91;;;3.51;100.00
60355;BME280;46198;51.464;-0.066;2023-01-28T01:59:09;103081.66;;;3.50;100.00
60355;BME280;46198;51.464;-0.066;2023-01-28T02:01:39;103078.13;;;3.49;100.00
60355;BME280;46198;51.464;-0.066;2023-01-28T02:04:12;103089.84;;;3.48;100.00
60355;BME280;46198;51.464;-0.066;2023-01-28T02:06:45;103089.09;;;3.46;100.00
60355;BME280;46198;51.464;-0.066;2023-01-28T02:09:27;103083.25;;;3.52;100.00
60355;BME280;46198;51.464;-0.066;2023-01-28T02:11:59;103081.66;;;3.50;100.00
60355;BME280;46198;51.464;-0.066;2023-01-28T02:14:30;103094.00;;;3.52;100.00
60355;BME280;46198;51.464;-0.066;2023-01-28T02:17:00;103088.63;;;3.52;100.00
60355;BME280;46198;51.464;-0.066;2023-01-28T02:19:35;103087.16;;;3.48;100.00
60355;BME280;46198;51.464;-0.066;2023-01-28T02:22:28;103094.00;;;3.52;100.00
60355;BME280;46198;51.464;-0.066;2023-01-28T02:28:12;103115.72;;;3.49;100.00
60355;BME280;46198;51.464;-0.066;2023-01-28T02:30:51;103101.09;;;3.53;100.00
60355;BME280;46198;51.464;-0.066;2023-01-28T02:33:26;103104.50;;;3.55;100.00
60355;BME280;46198;51.464;-0.066;2023-01-28T02:36:00;103108.41;;;3.51;100.00
60355;BME280;46198;51.464;-0.066;2023-01-28T02:38:35;103102.78;;;3.54;100.00
60355;BME280;46198;51.464;-0.066;2023-01-28T02:41:10;103096.56;;;3.54;100.00
60355;BME280;46198;51.464;-0.066;2023-01-28T02:43:44;103099.38;;;3.52;100.00
60355;BME280;46198;51.464;-0.066;2023-01-28T02:46:21;103087.78;;;3.52;100.00
60355;BME280;46198;51.464;-0.066;2023-01-28T02:49:20;103083.88;;;3.56;100.00
60355;BME280;46198;51.464;-0.066;2023-01-28T02:52:00;103090.09;;;3.57;100.00
60355;BME280;46198;51.464;-0.066;2023-01-28T02:54:36;103093.41;;;3.60;100.00
60355;BME280;46198;51.464;-0.066;2023-01-28T02:57:10;103096.09;;;3.60;100.00
60355;BME280;46198;51.464;-0.066;2023-01-28T02:59:49;103100.38;;;3.63;100.00
60355;BME280;46198;51.464;-0.066;2023-01-28T03:02:22;103098.44;;;3.65;100.00
60355;BME280;46198;51.464;-0.066;2023-01-28T03:05:02;103104.50;;;3.55;100.00
60355;BME280;46198;51.464;-0.066;2023-01-28T03:07:34;103111.34;;;3.60;100.00
60355;BME280;46198;51.464;-0.066;2023-01-28T03:10:05;103118.34;;;3.62;100.00
60355;BME280;46198;51.464;-0.066;2023-01-28T03:12:36;103114.78;;;3.62;100.00
60355;BME280;46198;51.464;-0.066;2023-01-28T03:15:28;103110.38;;;3.61;100.00
60355;BME280;46198;51.464;-0.066;2023-01-28T03:18:20;103113.06;;;3.61;100.00
60355;BME280;46198;51.464;-0.066;2023-01-28T03:21:09;103115.53;;;3.64;100.00
60355;BME280;46198;51.464;-0.066;2023-01-28T03:24:02;103121.63;;;3.66;100.00
60355;BME280;46198;51.464;-0.066;2023-01-28T03:26:55;103110.28;;;3.62;100.00
60355;BME280;46198;51.464;-0.066;2023-01-28T03:29:49;103114.03;;;3.60;100.00
60355;BME280;46198;51.464;-0.066;2023-01-28T03:32:39;103119.31;;;3.61;100.00
60355;BME280;46198;51.464;-0.066;2023-01-28T03:35:28;103111.88;;;3.65;100.00
60355;BME280;46198;51.464;-0.066;2023-01-28T03:38:16;103116.00;;;3.69;100.00
60355;BME280;46198;51.464;-0.066;2023-01-28T03:40:50;103117.75;;;3.70;100.00
60355;BME280;46198;51.464;-0.066;2023-01-28T03:43:19;103107.84;;;3.70;100.00
60355;BME280;46198;51.464;-0.066;2023-01-28T03:45:47;103116.00;;;3.69;100.00
60355;BME280;46198;51.464;-0.066;2023-01-28T03:48:19;103124.06;;;3.69;100.00
60355;BME280;46198;51.464;-0.066;2023-01-28T03:50:48;103129.09;;;3.73;100.00
60355;BME280;46198;51.464;-0.066;2023-01-28T03:53:18;103129.22;;;3.72;100.00
60355;BME280;46198;51.464;-0.066;2023-01-28T03:55:49;103130.69;;;3.76;100.00
60355;BME280;46198;51.464;-0.066;2023-01-28T03:58:18;103128.50;;;3.70;100.00
60355;BME280;46198;51.464;-0.066;2023-01-28T04:00:46;103131.03;;;3.71;100.00
60355;BME280;46198;51.464;-0.066;2023-01-28T04:03:17;103126.41;;;3.73;100.00
60355;BME280;46198;51.464;-0.066;2023-01-28T04:05:59;103125.56;;;3.73;100.00
60355;BME280;46198;51.464;-0.066;2023-01-28T04:08:48;103129.72;;;3.77;100.00
60355;BME280;46198;51.464;-0.066;2023-01-28T04:11:45;103131.69;;;3.75;100.00
60355;BME280;46198;51.464;-0.066;2023-01-28T04:14:19;103128.13;;;3.74;100.00
60355;BME280;46198;51.464;-0.066;2023-01-28T04:16:51;103135.31;;;3.74;100.00
60355;BME280;46198;51.464;-0.066;2023-01-28T04:19:48;103131.94;;;3.72;100.00
60355;BME280;46198;51.464;-0.066;2023-01-28T04:22:19;103133.72;;;3.71;100.00
60355;BME280;46198;51.464;-0.066;2023-01-28T04:25:13;103120.44;;;3.70;100.00
60355;BME280;46198;51.464;-0.066;2023-01-28T04:27:42;103116.91;;;3.69;100.00
60355;BME280;46198;51.464;-0.066;2023-01-28T04:30:17;103128.25;;;3.73;100.00
60355;BME280;46198;51.464;-0.066;2023-01-28T04:33:03;103130.94;;;3.73;100.00
60355;BME280;46198;51.464;-0.066;2023-01-28T04:35:39;103132.53;;;3.75;100.00
60355;BME280;46198;51.464;-0.066;2023-01-28T04:38:40;103134.81;;;3.69;100.00
60355;BME280;46198;51.464;-0.066;2023-01-28T04:41:38;103132.03;;;3.70;100.00
60355;BME280;46198;51.464;-0.066;2023-01-28T04:44:20;103137.31;;;3.72;100.00
60355;BME280;46198;51.464;-0.066;2023-01-28T04:47:15;103130.94;;;3.73;100.00
60355;BME280;46198;51.464;-0.066;2023-01-28T04:50:08;103136.31;;;3.73;100.00
60355;BME280;46198;51.464;-0.066;2023-01-28T04:52:42;103138.25;;;3.71;100.00
60355;BME280;46198;51.464;-0.066;2023-01-28T04:55:26;103141.69;;;3.73;100.00
60355;BME280;46198;51.464;-0.066;2023-01-28T04:57:54;103121.78;;;3.75;100.00
60355;BME280;46198;51.464;-0.066;2023-01-28T05:00:22;103121.38;;;3.69;100.00
60355;BME280;46198;51.464;-0.066;2023-01-28T05:02:50;103119.34;;;3.72;100.00
60355;BME280;46198;51.464;-0.066;2023-01-28T05:05:19;103126.31;;;3.75;100.00
60355;BME280;46198;51.464;-0.066;2023-01-28T05:07:57;103117.50;;;3.73;100.00
60355;BME280;46198;51.464;-0.066;2023-01-28T05:10:27;103106.00;;;3.71;100.00
60355;BME280;46198;51.464;-0.066;2023-01-28T05:12:55;103102.38;;;3.72;100.00
60355;BME280;46198;51.464;-0.066;2023-01-28T05:15:23;103110.19;;;3.75;100.00
60355;BME280;46198;51.464;-0.066;2023-01-28T05:17:53;103119.44;;;3.71;100.00
60355;BME280;46198;51.464;-0.066;2023-01-28T05:20:49;103122.88;;;3.73;100.00
60355;BME280;46198;51.464;-0.066;2023-01-28T05:23:17;103117.50;;;3.73;100.00
60355;BME280;46198;51.464;-0.066;2023-01-28T05:25:51;103125.31;;;3.76;100.00
60355;BME280;46198;51.464;-0.066;2023-01-28T05:28:19;103113.22;;;3.70;100.00
60355;BME280;46198;51.464;-0.066;2023-01-28T05:30:47;103114.31;;;3.68;100.00
60355;BME280;46198;51.464;-0.066;2023-01-28T05:33:16;103117.97;;;3.67;100.00
60355;BME280;46198;51.464;-0.066;2023-01-28T05:35:45;103116.75;;;3.71;100.00
60355;BME280;46198;51.464;-0.066;2023-01-28T05:38:16;103113.94;;;3.61;100.00
60355;BME280;46198;51.464;-0.066;2023-01-28T05:40:44;103117.72;;;3.59;100.00
60355;BME280;46198;51.464;-0.066;2023-01-28T05:43:13;103130.44;;;3.68;100.00
60355;BME280;46198;51.464;-0.066;2023-01-28T05:46:00;103115.31;;;3.67;100.00
60355;BME280;46198;51.464;-0.066;2023-01-28T05:48:55;103112.84;;;3.64;100.00
60355;BME280;46198;51.464;-0.066;2023-01-28T05:51:42;103113.69;;;3.64;100.00
60355;BME280;46198;51.464;-0.066;2023-01-28T05:54:13;103122.63;;;3.65;100.00
60355;BME280;46198;51.464;-0.066;2023-01-28T05:56:42;103123.34;;;3.67;100.00
60355;BME280;46198;51.464;-0.066;2023-01-28T05:59:11;103126.75;;;3.69;100.00
60355;BME280;46198;51.464;-0.066;2023-01-28T06:01:41;103130.66;;;3.65;100.00
60355;BME280;46198;51.464;-0.066;2023-01-28T06:04:09;103129.81;;;3.64;100.00
60355;BME280;46198;51.464;-0.066;2023-01-28T06:06:38;103128.47;;;3.59;100.00
60355;BME280;46198;51.464;-0.066;2023-01-28T06:09:06;103140.06;;;3.59;100.00
60355;BME280;46198;51.464;-0.066;2023-01-28T06:11:34;103143.34;;;3.63;100.00
60355;BME280;46198;51.464;-0.066;2023-01-28T06:14:04;103140.81;;;3.61;100.00
60355;BME280;46198;51.464;-0.066;2023-01-28T06:16:51;103139.31;;;3.57;100.00
60355;BME280;46198;51.464;-0.066;2023-01-28T06:19:25;103146.38;;;3.58;100.00
60355;BME280;46198;51.464;-0.066;2023-01-28T06:25:37;103146.28;;;3.60;100.00
60355;BME280;46198;51.464;-0.066;2023-01-28T06:28:09;103150.56;;;3.62;100.00
60355;BME280;46198;51.464;-0.066;2023-01-28T06:30:37;103144.59;;;3.59;100.00
60355;BME280;46198;51.464;-0.066;2023-01-28T06:33:06;103142.84;;;3.58;100.00
60355;BME280;46198;51.464;-0.066;2023-01-28T06:35:35;103149.72;;;3.62;100.00
60355;BME280;46198;51.464;-0.066;2023-01-28T06:38:03;103147.03;;;3.62;100.00
60355;BME280;46198;51.464;-0.066;2023-01-28T06:40:33;103152.66;;;3.59;100.00
60355;BME280;46198;51.464;-0.066;2023-01-28T06:43:01;103160.56;;;3.60;100.00
60355;BME280;46198;51.464;-0.066;2023-01-28T06:45:29;103153.09;;;3.52;100.00
60355;BME280;46198;51.464;-0.066;2023-01-28T06:47:57;103152.22;;;3.52;100.00
60355;BME280;46198;51.464;-0.066;2023-01-28T06:50:27;103161.88;;;3.54;100.00
60355;BME280;46198;51.464;-0.066;2023-01-28T06:52:55;103157.38;;;3.55;100.00
60355;BME280;46198;51.464;-0.066;2023-01-28T06:55:23;103155.53;;;3.55;100.00
60355;BME280;46198;51.464;-0.066;2023-01-28T06:57:51;103160.81;;;3.57;100.00
60355;BME280;46198;51.464;-0.066;2023-01-28T07:03:37;103159.94;;;3.57;100.00
60355;BME280;46198;51.464;-0.066;2023-01-28T07:06:07;103163.81;;;3.52;100.00
60355;BME280;46198;51.464;-0.066;2023-01-28T07:08:35;103159.44;;;3.51;100.00
60355;BME280;46198;51.464;-0.066;2023-01-28T07:11:05;103163.81;;;3.52;100.00
60355;BME280;46198;51.464;-0.066;2023-01-28T07:13:33;103162.63;;;3.57;100.00
60355;BME280;46198;51.464;-0.066;2023-01-28T07:16:06;103162.88;;;3.53;100.00
60355;BME280;46198;51.464;-0.066;2023-01-28T07:18:34;103152.13;;;3.53;100.00
60355;BME280;46198;51.464;-0.066;2023-01-28T07:21:02;103158.22;;;3.55;100.00
60355;BME280;46198;51.464;-0.066;2023-01-28T07:23:32;103161.66;;;3.58;100.00
60355;BME280;46198;51.464;-0.066;2023-01-28T07:26:01;103163.50;;;3.57;100.00
60355;BME280;46198;51.464;-0.066;2023-01-28T07:28:29;103170.47;;;3.60;100.00
60355;BME280;46198;51.464;-0.066;2023-01-28T07:30:59;103169.47;;;3.61;100.00
60355;BME280;46198;51.464;-0.066;2023-01-28T07:33:27;103168.84;;;3.57;100.00
60355;BME280;46198;51.464;-0.066;2023-01-28T07:35:56;103162.50;;;3.58;100.00
60355;BME280;46198;51.464;-0.066;2023-01-28T07:38:24;103165.09;;;3.60;100.00
60355;BME280;46198;51.464;-0.066;2023-01-28T07:40:53;103164.34;;;3.58;100.00
60355;BME280;46198;51.464;-0.066;2023-01-28T07:43:21;103169.94;;;3.54;100.00
60355;BME280;46198;51.464;-0.066;2023-01-28T07:45:49;103169.72;;;3.58;100.00
60355;BME280;46198;51.464;-0.066;2023-01-28T07:48:17;103167.03;;;3.58;100.00
60355;BME280;46198;51.464;-0.066;2023-01-28T07:50:45;103165.09;;;3.60;100.00
60355;BME280;46198;51.464;-0.066;2023-01-28T07:53:15;103168.53;;;3.62;100.00
60355;BME280;46198;51.464;-0.066;2023-01-28T07:55:43;103172.06;;;3.62;100.00
60355;BME280;46198;51.464;-0.066;2023-01-28T07:58:12;103170.22;;;3.63;100.00
60355;BME280;46198;51.464;-0.066;2023-01-28T08:00:40;103181.09;;;3.61;100.00
60355;BME280;46198;51.464;-0.066;2023-01-28T08:03:12;103180.97;;;3.63;100.00
60355;BME280;46198;51.464;-0.066;2023-01-28T08:05:44;103178.28;;;3.63;100.00
60355;BME280;46198;51.464;-0.066;2023-01-28T08:08:12;103176.59;;;3.62;100.00
60355;BME280;46198;51.464;-0.066;2023-01-28T08:10:41;103173.75;;;3.63;100.00
60355;BME280;46198;51.464;-0.066;2023-01-28T08:13:11;103174.50;;;3.65;100.00
60355;BME280;46198;51.464;-0.066;2023-01-28T08:15:41;103174.63;;;3.64;100.00
60355;BME280;46198;51.464;-0.066;2023-01-28T08:18:11;103167.81;;;3.71;100.00
60355;BME280;46198;51.464;-0.066;2023-01-28T08:20:40;103168.28;;;3.65;100.00
60355;BME280;46198;51.464;-0.066;2023-01-28T08:23:12;103169.97;;;3.66;100.00
60355;BME280;46198;51.464;-0.066;2023-01-28T08:25:40;103164.50;;;3.67;100.00
60355;BME280;46198;51.464;-0.066;2023-01-28T08:28:09;103165.13;;;3.71;100.00
60355;BME280;46198;51.464;-0.066;2023-01-28T08:30:38;103174.91;;;3.72;100.00
60355;BME280;46198;51.464;-0.066;2023-01-28T08:33:10;103166.84;;;3.72;100.00
60355;BME280;46198;51.464;-0.066;2023-01-28T08:35:39;103164.88;;;3.74;100.00
60355;BME280;46198;51.464;-0.066;2023-01-28T08:38:10;103166.47;;;3.76;100.00
60355;BME280;46198;51.464;-0.066;2023-01-28T08:40:38;103163.69;;;3.78;100.00
60355;BME280;46198;51.464;-0.066;2023-01-28T08:43:06;103172.50;;;3.80;100.00
60355;BME280;46198;51.464;-0.066;2023-01-28T08:45:35;103178.81;;;3.79;100.00
60355;BME280;46198;51.464;-0.066;2023-01-28T08:48:04;103180.38;;;3.70;100.00
60355;BME280;46198;51.464;-0.066;2023-01-28T08:50:36;103180.06;;;3.75;100.00
60355;BME280;46198;51.464;-0.066;2023-01-28T08:53:05;103179.81;;;3.78;100.00
60355;BME280;46198;51.464;-0.066;2023-01-28T08:55:35;103184.72;;;3.84;100.00
60355;BME280;46198;51.464;-0.066;2023-01-28T08:58:05;103193.50;;;3.86;100.00
60355;BME280;46198;51.464;-0.066;2023-01-28T09:00:34;103190.94;;;3.85;100.00
60355;BME280;46198;51.464;-0.066;2023-01-28T09:03:03;103195.81;;;3.91;100.00
60355;BME280;46198;51.464;-0.066;2023-01-28T09:05:37;103200.13;;;3.93;100.00
60355;BME280;46198;51.464;-0.066;2023-01-28T09:08:07;103197.94;;;3.98;100.00
60355;BME280;46198;51.464;-0.066;2023-01-28T09:10:35;103205.75;;;4.02;100.00
60355;BME280;46198;51.464;-0.066;2023-01-28T09:13:05;103201.13;;;4.04;100.00
60355;BME280;46198;51.464;-0.066;2023-01-28T09:15:33;103203.47;;;4.08;100.00
60355;BME280;46198;51.464;-0.066;2023-01-28T09:18:01;103204.31;;;4.09;100.00
60355;BME280;46198;51.464;-0.066;2023-01-28T09:20:29;103206.16;;;4.08;100.00
60355;BME280;46198;51.464;-0.066;2023-01-28T09:23:00;103205.06;;;4.11;100.00
60355;BME280;46198;51.464;-0.066;2023-01-28T09:25:28;103208.50;;;4.24;100.00
60355;BME280;46198;51.464;-0.066;2023-01-28T09:27:57;103213.38;;;4.19;100.00
60355;BME280;46198;51.464;-0.066;2023-01-28T09:30:25;103208.97;;;4.18;100.00
60355;BME280;46198;51.464;-0.066;2023-01-28T09:32:54;103213.63;;;4.16;100.00
60355;BME280;46198;51.464;-0.066;2023-01-28T09:35:24;103216.69;;;4.22;100.00
60355;BME280;46198;51.464;-0.066;2023-01-28T09:37:55;103224.88;;;4.21;100.00
60355;BME280;46198;51.464;-0.066;2023-01-28T09:40:30;103217.31;;;4.26;100.00
60355;BME280;46198;51.464;-0.066;2023-01-28T09:43:12;103219.53;;;4.32;100.00
60355;BME280;46198;51.464;-0.066;2023-01-28T09:45:44;103211.47;;;4.32;100.00
60355;BME280;46198;51.464;-0.066;2023-01-28T09:48:15;103215.75;;;4.35;100.00
60355;BME280;46198;51.464;-0.066;2023-01-28T09:50:47;103228.59;;;4.42;100.00
60355;BME280;46198;51.464;-0.066;2023-01-28T09:53:19;103209.75;;;4.42;100.00
60355;BME280;46198;51.464;-0.066;2023-01-28T09:55:53;103218.69;;;4.43;100.00
60355;BME280;46198;51.464;-0.066;2023-01-28T09:58:22;103217.84;;;4.42;100.00
60355;BME280;46198;51.464;-0.066;2023-01-28T10:00:54;103218.09;;;4.51;100.00
60355;BME280;46198;51.464;-0.066;2023-01-28T10:03:40;103218.56;;;4.56;100.00
60355;BME280;46198;51.464;-0.066;2023-01-28T10:06:22;103216.34;;;4.61;100.00
60355;BME280;46198;51.464;-0.066;2023-01-28T10:09:04;103216.84;;;4.55;100.00
60355;BME280;46198;51.464;-0.066;2023-01-28T10:18:31;103201.94;;;4.73;100.00
60355;BME280;46198;51.464;-0.066;2023-01-28T10:21:06;103202.41;;;4.78;100.00
60355;BME280;46198;51.464;-0.066;2023-01-28T10:23:49;103205.13;;;4.78;100.00
60355;BME280;46198;51.464;-0.066;2023-01-28T10:26:22;103199.97;;;4.86;100.00
60355;BME280;46198;51.464;-0.066;2023-01-28T10:28:54;103192.84;;;4.97;100.00
60355;BME280;46198;51.464;-0.066;2023-01-28T10:31:29;103191.34;;;5.04;100.00
60355;BME280;46198;51.464;-0.066;2023-01-28T10:34:01;103191.84;;;5.09;100.00
60355;BME280;46198;51.464;-0.066;2023-01-28T10:36:30;103192.56;;;5.11;100.00
60355;BME280;46198;51.464;-0.066;2023-01-28T10:38:58;103191.94;;;5.07;100.00
60355;BME280;46198;51.464;-0.066;2023-01-28T10:41:26;103195.78;;;4.94;100.00
60355;BME280;46198;51.464;-0.066;2023-01-28T10:43:56;103186.34;;;5.10;100.00
60355;BME280;46198;51.464;-0.066;2023-01-28T10:46:27;103186.09;;;4.91;100.00
60355;BME280;46198;51.464;-0.066;2023-01-28T10:49:03;103182.91;;;5.08;100.00
60355;BME280;46198;51.464;-0.066;2023-01-28T10:51:35;103168.31;;;5.22;100.00
60355;BME280;46198;51.464;-0.066;2023-01-28T10:54:17;103167.06;;;5.26;100.00
60355;BME280;46198;51.464;-0.066;2023-01-28T10:56:46;103170.97;;;5.33;100.00
60355;BME280;46198;51.464;-0.066;2023-01-28T10:59:21;103156.75;;;5.31;100.00
60355;BME280;46198;51.464;-0.066;2023-01-28T11:01:51;103146.19;;;5.40;100.00
60355;BME280;46198;51.464;-0.066;2023-01-28T11:04:24;103144.00;;;5.33;100.00
60355;BME280;46198;51.464;-0.066;2023-01-28T11:06:58;103131.66;;;5.31;100.00
60355;BME280;46198;51.464;-0.066;2023-01-28T11:09:28;103121.25;;;5.38;100.00
60355;BME280;46198;51.464;-0.066;2023-01-28T11:11:57;103118.06;;;5.53;100.00
60355;BME280;46198;51.464;-0.066;2023-01-28T11:14:26;103105.28;;;5.46;100.00
60355;BME280;46198;51.464;-0.066;2023-01-28T11:17:19;103098.22;;;5.33;100.00
60355;BME280;46198;51.464;-0.066;2023-01-28T11:19:52;103094.69;;;5.54;100.00
60355;BME280;46198;51.464;-0.066;2023-01-28T11:22:27;103097.78;;;5.70;100.00
60355;BME280;46198;51.464;-0.066;2023-01-28T11:24:59;103088.03;;;5.79;100.00
60355;BME280;46198;51.464;-0.066;2023-01-28T11:27:29;103101.19;;;5.72;100.00
60355;BME280;46198;51.464;-0.066;2023-01-28T11:30:00;103106.00;;;5.69;100.00
60355;BME280;46198;51.464;-0.066;2023-01-28T11:32:30;103109.69;;;5.68;100.00
60355;BME280;46198;51.464;-0.066;2023-01-28T11:35:00;103118.63;;;5.89;100.00
60355;BME280;46198;51.464;-0.066;2023-01-28T11:37:28;103105.25;;;5.88;100.00
60355;BME280;46198;51.464;-0.066;2023-01-28T11:40:02;103107.75;;;5.80;100.00
60355;BME280;46198;51.464;-0.066;2023-01-28T11:42:31;103107.88;;;5.78;100.00
60355;BME280;46198;51.464;-0.066;2023-01-28T11:44:59;103110.66;;;5.88;100.00
60355;BME280;46198;51.464;-0.066;2023-01-28T11:50:51;103113.81;;;5.72;100.00
60355;BME280;46198;51.464;-0.066;2023-01-28T11:53:37;103117.75;;;5.89;100.00
60355;BME280;46198;51.464;-0.066;2023-01-28T11:59:15;103111.78;;;6.06;100.00
60355;BME280;46198;51.464;-0.066;2023-01-28T12:01:54;103125.59;;;5.92;100.00
60355;BME280;46198;51.464;-0.066;2023-01-28T12:04:42;103125.81;;;5.89;100.00
60355;BME280;46198;51.464;-0.066;2023-01-28T12:07:28;103126.25;;;5.84;100.00
60355;BME280;46198;51.464;-0.066;2023-01-28T12:10:03;103123.75;;;5.92;100.00
60355;BME280;46198;51.464;-0.066;2023-01-28T12:12:51;103133.44;;;5.95;100.00
60355;BME280;46198;51.464;-0.066;2023-01-28T12:15:41;103144.97;;;5.86;100.00
60355;BME280;46198;51.464;-0.066;2023-01-28T12:18:24;103144.34;;;5.93;100.00
60355;BME280;46198;51.464;-0.066;2023-01-28T12:21:02;103140.72;;;6.04;100.00
60355;BME280;46198;51.464;-0.066;2023-01-28T12:23:44;103141.72;;;6.03;100.00
60355;BME280;46198;51.464;-0.066;2023-01-28T12:26:22;103133.53;;;6.14;100.00
60355;BME280;46198;51.464;-0.066;2023-01-28T12:29:04;103126.38;;;6.25;100.00
60355;BME280;46198;51.464;-0.066;2023-01-28T12:31:50;103118.00;;;6.28;100.00
60355;BME280;46198;51.464;-0.066;2023-01-28T12:34:35;103115.03;;;6.31;100.00
60355;BME280;46198;51.464;-0.066;2023-01-28T12:37:15;103122.19;;;6.11;100.00
60355;BME280;46198;51.464;-0.066;2023-01-28T12:39:59;103117.81;;;6.19;100.00
60355;BME280;46198;51.464;-0.066;2023-01-28T12:42:34;103115.13;;;6.19;100.00
60355;BME280;46198;51.464;-0.066;2023-01-28T12:45:13;103125.25;;;6.27;100.00
60355;BME280;46198;51.464;-0.066;2023-01-28T12:47:48;103124.00;;;6.10;100.00
60355;BME280;46198;51.464;-0.066;2023-01-28T12:50:22;103114.66;;;6.14;100.00
60355;BME280;46198;51.464;-0.066;2023-01-28T12:52:54;103105.38;;;6.07;100.00
60355;BME280;46198;51.464;-0.066;2023-01-28T12:55:35;103105.34;;;5.76;100.00
60355;BME280;46198;51.464;-0.066;2023-01-28T12:58:12;103097.38;;;5.96;100.00
60355;BME280;46198;51.464;-0.066;2023-01-28T13:00:47;103093.66;;;6.18;100.00
60355;BME280;46198;51.464;-0.066;2023-01-28T13:03:29;103087.50;;;6.06;100.00
60355;BME280;46198;51.464;-0.066;2023-01-28T13:06:05;103090.84;;;6.19;100.00
60355;BME280;46198;51.464;-0.066;2023-01-28T13:08:35;103087.59;;;6.26;100.00
60355;BME280;46198;51.464;-0.066;2023-01-28T13:11:11;103073.13;;;6.36;100.00
60355;BME280;46198;51.464;-0.066;2023-01-28T13:13:41;103089.25;;;6.17;100.00
60355;BME280;46198;51.464;-0.066;2023-01-28T13:16:11;103088.41;;;6.16;100.00
60355;BME280;46198;51.464;-0.066;2023-01-28T13:18:43;103086.13;;;6.21;100.00
60355;BME280;46198;51.464;-0.066;2023-01-28T13:21:15;103079.38;;;6.27;100.00
60355;BME280;46198;51.464;-0.066;2023-01-28T13:23:44;103066.00;;;6.26;100.00
60355;BME280;46198;51.464;-0.066;2023-01-28T13:26:40;103068.06;;;6.03;100.00
60355;BME280;46198;51.464;-0.066;2023-01-28T13:29:19;103069.94;;;6.12;100.00
60355;BME280;46198;51.464;-0.066;2023-01-28T13:31:51;103071.34;;;6.16;100.00
60355;BME280;46198;51.464;-0.066;2023-01-28T13:34:28;103063.03;;;6.29;100.00
60355;BME280;46198;51.464;-0.066;2023-01-28T13:37:01;103052.97;;;6.31;100.00